Thomas Jefferson — WTEA — position and weather

sailwx.info

Track history (hours):
 
Tides and Currents Weather Stations Pressure Air Temp Water Temp Dewpoint Dewpoint Depression Visibility Wind Speed Wind Dir Waves Ship Positions

Oceanographic research ship Thomas Jefferson (USA)

Detailed information on ship capabilities available from University of Delaware's Ocean Information Center.

Last reported at 2018-May-24 15:48 UTC. Time now 2018-May-25 18:56 UTC.
Position N 29°20' W 094°30'.

Type: Dredging. MMSI: 369958000.

Date/timePositionNaut miles runAvg speedWind from/ knotsBaromVisibWave heightAir tempDewpointWater temp
2018-May-24 15:48N 29°20' W 094°30'6 4.5
2018-May-24 14:31N 29°20' W 094°37'0 0.2
2018-May-24 14:28N 29°20' W 094°37'0 0.8
2018-May-24 13:54N 29°20' W 094°36'1 2.6
2018-May-24 13:29N 29°20' W 094°35'  
2018-May-16 07:02N 27°53' W 092°13'311.2
2018-May-16 06:48N 27°52' W 092°16'3510.1
2018-May-16 03:18N 28°10' W 092°51'411.7
2018-May-16 02:59N 28°13' W 092°53'511.5
2018-May-16 02:30N 28°16' W 092°58'611.4
2018-May-16 02:00N 28°19' W 093°04'611.6
2018-May-16 01:30N 28°22' W 093°09'611.5
2018-May-16 01:00N 28°26' W 093°15'611.6
2018-May-16 00:30N 28°29' W 093°20'612.0
2018-May-16 00:00N 28°33' W 093°25'711.4
2018-May-15 23:25N 28°38' W 093°30'410.6
2018-May-15 22:59N 28°41' W 093°33'4 5.4
2018-May-15 22:19N 28°44' W 093°37'1 2.3
2018-May-15 22:00N 28°44' W 093°37'1 1.2
2018-May-15 21:14N 28°45' W 093°38'2 9.9
2018-May-15 21:00N 28°46' W 093°40'5 9.7
2018-May-15 20:30N 28°49' W 093°45'5 9.6
2018-May-15 20:00N 28°52' W 093°49'5 9.9
2018-May-15 19:30N 28°55' W 093°54'0 0.5
2018-May-15 18:51N 28°55' W 093°54'9 9.5
2018-May-15 17:52N 28°49' W 093°46'3 9.3
2018-May-15 17:29N 28°47' W 093°42'4 9.2
2018-May-15 17:00N 28°45' W 093°38'4 3.3
2018-May-15 15:39N 28°47' W 093°42'1 9.8
2018-May-15 15:30N 28°48' W 093°44'510.0
2018-May-15 15:00N 28°51' W 093°48'510.2
2018-May-15 14:30N 28°54' W 093°53'3 6.2
2018-May-15 14:01N 28°56' W 093°56'610.0
2018-May-15 13:27N 28°53' W 093°50'4 9.6
2018-May-15 13:00N 28°50' W 093°46'5 9.5
2018-May-15 12:30N 28°48' W 093°42'5 9.5
2018-May-15 11:59N 28°45' W 093°37'3 6.7
2018-May-15 11:29N 28°43' W 093°34'610.5
2018-May-15 10:58N 28°46' W 093°40'510.5
2018-May-15 10:30N 28°49' W 093°44'510.3
2018-May-15 10:00N 28°52' W 093°49'5 9.8
2018-May-15 09:28N 28°55' W 093°54'1 2.2
2018-May-15 08:56N 28°56' W 093°55'410.4
2018-May-15 08:30N 28°53' W 093°50'510.2
2018-May-15 08:00N 28°50' W 093°46'510.0
2018-May-15 07:30N 28°47' W 093°41'510.1
2018-May-15 07:00N 28°44' W 093°36'0 0.3
2018-May-15 06:30N 28°44' W 093°37'5 9.7
2018-May-15 06:00N 28°47' W 093°41'5 9.6
2018-May-15 05:30N 28°50' W 093°45'5 9.2
2018-May-15 05:00N 28°52' W 093°50'4 8.8
2018-May-15 04:30N 28°55' W 093°54'1 1.8
2018-May-15 04:00N 28°56' W 093°55'511.1
2018-May-15 03:30N 28°52' W 093°50'610.9
2018-May-15 03:00N 28°49' W 093°44'510.6
2018-May-15 02:30N 28°46' W 093°40'510.4
2018-May-15 02:00N 28°43' W 093°35'6 7.4
2018-May-15 01:13N 28°47' W 093°40'2 9.5
2018-May-15 01:00N 28°48' W 093°42'5 9.3
2018-May-15 00:30N 28°50' W 093°46'4 8.9
2018-May-15 00:00N 28°53' W 093°50'5 9.2
2018-May-14 23:30N 28°56' W 093°55'2 3.8
2018-May-14 22:59N 28°54' W 093°53'1910.2
2018-May-14 21:07N 28°43' W 093°35'3 4.2
2018-May-14 20:26N 28°45' W 093°38'6 9.6
2018-May-14 19:49N 28°49' W 093°43'5 9.6
2018-May-14 19:19N 28°51' W 093°47'4 9.6
2018-May-14 18:52N 28°54' W 093°51'4 9.9
2018-May-14 18:30N 28°56' W 093°55'3 4.5
2018-May-14 17:57N 28°54' W 093°53'4 9.4
2018-May-14 17:30N 28°52' W 093°49'5 9.6
2018-May-14 17:00N 28°49' W 093°44'5 9.8
2018-May-14 16:30N 28°46' W 093°40'5 9.2
2018-May-14 16:00N 28°44' W 093°35'  
Track history (hours):
 
Tides and Currents Weather Stations Pressure Air Temp Water Temp Dewpoint Dewpoint Depression Visibility Wind Speed Wind Dir Waves Ship Positions

Oceanographic research ship Thomas Jefferson (USA)

Detailed information on ship capabilities available from University of Delaware's Ocean Information Center.

Last reported at 2018-May-24 15:48 UTC. Time now 2018-May-25 18:56 UTC.
Position N 29°20' W 094°30'.

Type: Dredging. MMSI: 369958000.

Date/timePositionNaut miles runAvg speedWind from/ knotsBaromVisibWave heightAir tempDewpointWater temp
2018-May-24 15:48N 29°20' W 094°30'6 4.5
2018-May-24 14:31N 29°20' W 094°37'0 0.2
2018-May-24 14:28N 29°20' W 094°37'0 0.8
2018-May-24 13:54N 29°20' W 094°36'1 2.6
2018-May-24 13:29N 29°20' W 094°35'  
2018-May-16 07:02N 27°53' W 092°13'311.2
2018-May-16 06:48N 27°52' W 092°16'3510.1
2018-May-16 03:18N 28°10' W 092°51'411.7
2018-May-16 02:59N 28°13' W 092°53'511.5
2018-May-16 02:30N 28°16' W 092°58'611.4
2018-May-16 02:00N 28°19' W 093°04'611.6
2018-May-16 01:30N 28°22' W 093°09'611.5
2018-May-16 01:00N 28°26' W 093°15'611.6
2018-May-16 00:30N 28°29' W 093°20'612.0
2018-May-16 00:00N 28°33' W 093°25'711.4
2018-May-15 23:25N 28°38' W 093°30'410.6
2018-May-15 22:59N 28°41' W 093°33'4 5.4
2018-May-15 22:19N 28°44' W 093°37'1 2.3
2018-May-15 22:00N 28°44' W 093°37'1 1.2
2018-May-15 21:14N 28°45' W 093°38'2 9.9
2018-May-15 21:00N 28°46' W 093°40'5 9.7
2018-May-15 20:30N 28°49' W 093°45'5 9.6
2018-May-15 20:00N 28°52' W 093°49'5 9.9
2018-May-15 19:30N 28°55' W 093°54'0 0.5
2018-May-15 18:51N 28°55' W 093°54'9 9.5
2018-May-15 17:52N 28°49' W 093°46'3 9.3
2018-May-15 17:29N 28°47' W 093°42'4 9.2
2018-May-15 17:00N 28°45' W 093°38'4 3.3
2018-May-15 15:39N 28°47' W 093°42'1 9.8
2018-May-15 15:30N 28°48' W 093°44'510.0
2018-May-15 15:00N 28°51' W 093°48'510.2
2018-May-15 14:30N 28°54' W 093°53'3 6.2
2018-May-15 14:01N 28°56' W 093°56'610.0
2018-May-15 13:27N 28°53' W 093°50'4 9.6
2018-May-15 13:00N 28°50' W 093°46'5 9.5
2018-May-15 12:30N 28°48' W 093°42'5 9.5
2018-May-15 11:59N 28°45' W 093°37'3 6.7
2018-May-15 11:29N 28°43' W 093°34'610.5
2018-May-15 10:58N 28°46' W 093°40'510.5
2018-May-15 10:30N 28°49' W 093°44'510.3
2018-May-15 10:00N 28°52' W 093°49'5 9.8
2018-May-15 09:28N 28°55' W 093°54'1 2.2
2018-May-15 08:56N 28°56' W 093°55'410.4
2018-May-15 08:30N 28°53' W 093°50'510.2
2018-May-15 08:00N 28°50' W 093°46'510.0
2018-May-15 07:30N 28°47' W 093°41'510.1
2018-May-15 07:00N 28°44' W 093°36'0 0.3
2018-May-15 06:30N 28°44' W 093°37'5 9.7
2018-May-15 06:00N 28°47' W 093°41'5 9.6
2018-May-15 05:30N 28°50' W 093°45'5 9.2
2018-May-15 05:00N 28°52' W 093°50'4 8.8
2018-May-15 04:30N 28°55' W 093°54'1 1.8
2018-May-15 04:00N 28°56' W 093°55'511.1
2018-May-15 03:30N 28°52' W 093°50'610.9
2018-May-15 03:00N 28°49' W 093°44'510.6
2018-May-15 02:30N 28°46' W 093°40'510.4
2018-May-15 02:00N 28°43' W 093°35'6 7.4
2018-May-15 01:13N 28°47' W 093°40'2 9.5
2018-May-15 01:00N 28°48' W 093°42'5 9.3
2018-May-15 00:30N 28°50' W 093°46'4 8.9
2018-May-15 00:00N 28°53' W 093°50'5 9.2
2018-May-14 23:30N 28°56' W 093°55'2 3.8
2018-May-14 22:59N 28°54' W 093°53'1910.2
2018-May-14 21:07N 28°43' W 093°35'3 4.2
2018-May-14 20:26N 28°45' W 093°38'6 9.6
2018-May-14 19:49N 28°49' W 093°43'5 9.6
2018-May-14 19:19N 28°51' W 093°47'4 9.6
2018-May-14 18:52N 28°54' W 093°51'4 9.9
2018-May-14 18:30N 28°56' W 093°55'3 4.5
2018-May-14 17:57N 28°54' W 093°53'4 9.4
2018-May-14 17:30N 28°52' W 093°49'5 9.6
2018-May-14 17:00N 28°49' W 093°44'5 9.8
2018-May-14 16:30N 28°46' W 093°40'5 9.2
2018-May-14 16:00N 28°44' W 093°35'  

Dump ship's entire track history